Goodwood, United Kingdom
Current Conditions -  °F | °C
As of 8:50 AM on Saturday 25 Oct 2014 (Local Time) from EGKA Reporting Station
Clear Clear  
Wind Chill: 50°   Ceiling: Unl
Heat Index: 50°   Visibility: 6mi
Dew Point: 48°   Wind: 2mph
Humidity: 94%   Direction: 250°WSW
Pressure: 30.09"   Gusts: NA
Location:  50.87°N, 0.73°W
Report Text: EGKA 250750Z 25002KT CAVOK 10/09 Q1019
Loading
Personal Weather Stations






























Interactive Weather Map New forecast layout! Learn more

10-Day Weather Forecast

Advertisements
Track Severe Weather on mobile